sensor_id;sensor_type;location;lat;lon;timestamp;temperature;humidity
16118;DHT22;8163;50.118;5.342;2023-04-10T00:02:20;9.20;68.40
16118;DHT22;8163;50.118;5.342;2023-04-10T00:04:49;9.10;68.40
16118;DHT22;8163;50.118;5.342;2023-04-10T00:07:16;9.10;68.40
16118;DHT22;8163;50.118;5.342;2023-04-10T00:09:43;9.10;68.30
16118;DHT22;8163;50.118;5.342;2023-04-10T00:12:10;9.00;68.20
16118;DHT22;8163;50.118;5.342;2023-04-10T00:14:37;9.00;68.30
16118;DHT22;8163;50.118;5.342;2023-04-10T00:17:04;8.90;68.30
16118;DHT22;8163;50.118;5.342;2023-04-10T00:19:31;8.90;68.60
16118;DHT22;8163;50.118;5.342;2023-04-10T00:22:03;8.90;69.00
16118;DHT22;8163;50.118;5.342;2023-04-10T00:24:30;8.90;69.10
16118;DHT22;8163;50.118;5.342;2023-04-10T00:26:57;8.90;69.10
16118;DHT22;8163;50.118;5.342;2023-04-10T00:29:24;8.90;69.30
16118;DHT22;8163;50.118;5.342;2023-04-10T00:31:51;8.90;69.40
16118;DHT22;8163;50.118;5.342;2023-04-10T00:34:18;9.00;69.40
16118;DHT22;8163;50.118;5.342;2023-04-10T00:36:45;9.00;69.30
16118;DHT22;8163;50.118;5.342;2023-04-10T00:39:14;9.00;69.30
16118;DHT22;8163;50.118;5.342;2023-04-10T00:41:41;9.00;69.20
16118;DHT22;8163;50.118;5.342;2023-04-10T00:44:08;8.90;69.20
16118;DHT22;8163;50.118;5.342;2023-04-10T00:46:36;8.90;69.10
16118;DHT22;8163;50.118;5.342;2023-04-10T00:49:04;8.90;69.10
16118;DHT22;8163;50.118;5.342;2023-04-10T00:51:32;8.90;69.20
16118;DHT22;8163;50.118;5.342;2023-04-10T00:53:59;8.90;69.30
16118;DHT22;8163;50.118;5.342;2023-04-10T00:56:29;8.90;69.20
16118;DHT22;8163;50.118;5.342;2023-04-10T00:58:56;9.00;69.40
16118;DHT22;8163;50.118;5.342;2023-04-10T01:01:23;9.00;69.40
16118;DHT22;8163;50.118;5.342;2023-04-10T01:03:51;9.00;69.30
16118;DHT22;8163;50.118;5.342;2023-04-10T01:06:32;9.00;69.20
16118;DHT22;8163;50.118;5.342;2023-04-10T01:09:07;9.00;69.20
16118;DHT22;8163;50.118;5.342;2023-04-10T01:11:46;9.00;69.10
16118;DHT22;8163;50.118;5.342;2023-04-10T01:14:25;9.00;68.90
16118;DHT22;8163;50.118;5.342;2023-04-10T01:16:56;9.00;68.90
16118;DHT22;8163;50.118;5.342;2023-04-10T01:19:37;9.00;68.90
16118;DHT22;8163;50.118;5.342;2023-04-10T01:22:09;9.00;69.00
16118;DHT22;8163;50.118;5.342;2023-04-10T01:24:49;8.90;68.80
16118;DHT22;8163;50.118;5.342;2023-04-10T01:27:34;8.90;68.80
16118;DHT22;8163;50.118;5.342;2023-04-10T01:30:05;8.90;68.90
16118;DHT22;8163;50.118;5.342;2023-04-10T01:32:35;8.90;68.90
16118;DHT22;8163;50.118;5.342;2023-04-10T01:35:05;8.90;68.70
16118;DHT22;8163;50.118;5.342;2023-04-10T01:37:36;8.90;68.80
16118;DHT22;8163;50.118;5.342;2023-04-10T01:40:08;8.90;68.70
16118;DHT22;8163;50.118;5.342;2023-04-10T01:42:40;8.80;68.60
16118;DHT22;8163;50.118;5.342;2023-04-10T01:45:14;8.80;68.70
16118;DHT22;8163;50.118;5.342;2023-04-10T01:47:43;8.80;68.80
16118;DHT22;8163;50.118;5.342;2023-04-10T01:50:10;8.80;68.90
16118;DHT22;8163;50.118;5.342;2023-04-10T01:52:38;8.90;69.00
16118;DHT22;8163;50.118;5.342;2023-04-10T01:55:07;8.80;68.90
16118;DHT22;8163;50.118;5.342;2023-04-10T01:57:34;8.80;69.10
16118;DHT22;8163;50.118;5.342;2023-04-10T02:00:02;8.80;69.20
16118;DHT22;8163;50.118;5.342;2023-04-10T02:02:31;8.80;69.20
16118;DHT22;8163;50.118;5.342;2023-04-10T02:04:58;8.70;69.30
16118;DHT22;8163;50.118;5.342;2023-04-10T02:07:30;8.80;69.70
16118;DHT22;8163;50.118;5.342;2023-04-10T02:10:07;8.80;69.70
16118;DHT22;8163;50.118;5.342;2023-04-10T02:12:37;8.70;69.60
16118;DHT22;8163;50.118;5.342;2023-04-10T02:15:06;8.70;69.70
16118;DHT22;8163;50.118;5.342;2023-04-10T02:17:36;8.70;69.60
16118;DHT22;8163;50.118;5.342;2023-04-10T02:20:05;8.70;69.70
16118;DHT22;8163;50.118;5.342;2023-04-10T02:22:33;8.70;69.70
16118;DHT22;8163;50.118;5.342;2023-04-10T02:25:03;8.70;69.80
16118;DHT22;8163;50.118;5.342;2023-04-10T02:27:33;8.70;69.80
16118;DHT22;8163;50.118;5.342;2023-04-10T02:30:01;8.70;70.00
16118;DHT22;8163;50.118;5.342;2023-04-10T02:32:29;8.70;70.00
16118;DHT22;8163;50.118;5.342;2023-04-10T02:34:57;8.70;70.10
16118;DHT22;8163;50.118;5.342;2023-04-10T02:37:26;8.60;70.40
16118;DHT22;8163;50.118;5.342;2023-04-10T02:39:53;8.70;70.40
16118;DHT22;8163;50.118;5.342;2023-04-10T02:42:20;8.60;70.40
16118;DHT22;8163;50.118;5.342;2023-04-10T02:44:47;8.60;70.40
16118;DHT22;8163;50.118;5.342;2023-04-10T02:47:15;8.60;70.50
16118;DHT22;8163;50.118;5.342;2023-04-10T02:49:43;8.60;70.60
16118;DHT22;8163;50.118;5.342;2023-04-10T02:52:13;8.60;70.60
16118;DHT22;8163;50.118;5.342;2023-04-10T02:54:42;8.60;70.60
16118;DHT22;8163;50.118;5.342;2023-04-10T02:57:08;8.60;70.60
16118;DHT22;8163;50.118;5.342;2023-04-10T02:59:36;8.60;70.80
16118;DHT22;8163;50.118;5.342;2023-04-10T03:02:03;8.50;70.90
16118;DHT22;8163;50.118;5.342;2023-04-10T03:04:31;8.60;71.00
16118;DHT22;8163;50.118;5.342;2023-04-10T03:06:59;8.50;70.90
16118;DHT22;8163;50.118;5.342;2023-04-10T03:09:46;8.50;71.80
16118;DHT22;8163;50.118;5.342;2023-04-10T03:12:13;8.50;71.00
16118;DHT22;8163;50.118;5.342;2023-04-10T03:14:40;8.50;71.00
16118;DHT22;8163;50.118;5.342;2023-04-10T03:17:06;8.50;71.00
16118;DHT22;8163;50.118;5.342;2023-04-10T03:19:34;8.40;71.00
16118;DHT22;8163;50.118;5.342;2023-04-10T03:22:01;8.50;71.20
16118;DHT22;8163;50.118;5.342;2023-04-10T03:24:28;8.50;71.30
16118;DHT22;8163;50.118;5.342;2023-04-10T03:26:56;8.40;71.10
16118;DHT22;8163;50.118;5.342;2023-04-10T03:29:23;8.40;71.20
16118;DHT22;8163;50.118;5.342;2023-04-10T03:31:50;8.40;71.30
16118;DHT22;8163;50.118;5.342;2023-04-10T03:34:17;8.40;71.40
16118;DHT22;8163;50.118;5.342;2023-04-10T03:36:44;8.40;71.60
16118;DHT22;8163;50.118;5.342;2023-04-10T03:39:11;8.40;71.50
16118;DHT22;8163;50.118;5.342;2023-04-10T03:41:38;8.30;71.40
16118;DHT22;8163;50.118;5.342;2023-04-10T03:44:06;8.30;71.50
16118;DHT22;8163;50.118;5.342;2023-04-10T03:46:33;8.30;71.40
16118;DHT22;8163;50.118;5.342;2023-04-10T03:49:00;8.30;71.40
16118;DHT22;8163;50.118;5.342;2023-04-10T03:51:28;8.30;71.50
16118;DHT22;8163;50.118;5.342;2023-04-10T03:53:56;8.30;71.60
16118;DHT22;8163;50.118;5.342;2023-04-10T03:56:23;8.30;71.50
16118;DHT22;8163;50.118;5.342;2023-04-10T03:58:50;8.30;71.60
16118;DHT22;8163;50.118;5.342;2023-04-10T04:01:19;8.30;71.60
16118;DHT22;8163;50.118;5.342;2023-04-10T04:03:46;8.20;71.60
16118;DHT22;8163;50.118;5.342;2023-04-10T04:06:13;8.20;72.50
16118;DHT22;8163;50.118;5.342;2023-04-10T04:08:40;8.20;71.70
16118;DHT22;8163;50.118;5.342;2023-04-10T04:11:07;8.20;71.80
16118;DHT22;8163;50.118;5.342;2023-04-10T04:13:34;8.20;71.70
16118;DHT22;8163;50.118;5.342;2023-04-10T04:16:01;8.20;71.70
16118;DHT22;8163;50.118;5.342;2023-04-10T04:18:29;8.10;71.70
16118;DHT22;8163;50.118;5.342;2023-04-10T04:20:56;8.10;71.70
16118;DHT22;8163;50.118;5.342;2023-04-10T04:23:23;8.10;71.70
16118;DHT22;8163;50.118;5.342;2023-04-10T04:25:53;8.00;71.80
16118;DHT22;8163;50.118;5.342;2023-04-10T04:28:22;8.00;71.90
16118;DHT22;8163;50.118;5.342;2023-04-10T04:30:49;8.00;72.10
16118;DHT22;8163;50.118;5.342;2023-04-10T04:33:16;8.00;72.20
16118;DHT22;8163;50.118;5.342;2023-04-10T04:35:44;8.00;72.40
16118;DHT22;8163;50.118;5.342;2023-04-10T04:38:11;8.00;72.30
16118;DHT22;8163;50.118;5.342;2023-04-10T04:40:38;8.00;72.40
16118;DHT22;8163;50.118;5.342;2023-04-10T04:43:05;8.00;72.50
16118;DHT22;8163;50.118;5.342;2023-04-10T04:45:33;8.00;72.30
16118;DHT22;8163;50.118;5.342;2023-04-10T04:48:00;8.00;72.30
16118;DHT22;8163;50.118;5.342;2023-04-10T04:50:27;8.00;72.60
16118;DHT22;8163;50.118;5.342;2023-04-10T04:52:55;8.00;72.70
16118;DHT22;8163;50.118;5.342;2023-04-10T04:55:25;8.10;73.00
16118;DHT22;8163;50.118;5.342;2023-04-10T04:57:52;8.10;73.00
16118;DHT22;8163;50.118;5.342;2023-04-10T05:00:19;8.10;73.10
16118;DHT22;8163;50.118;5.342;2023-04-10T05:02:46;8.20;73.20
16118;DHT22;8163;50.118;5.342;2023-04-10T05:05:13;8.20;73.30
16118;DHT22;8163;50.118;5.342;2023-04-10T05:07:40;8.20;73.40
16118;DHT22;8163;50.118;5.342;2023-04-10T05:10:09;8.20;73.50
16118;DHT22;8163;50.118;5.342;2023-04-10T05:12:36;8.20;73.50
16118;DHT22;8163;50.118;5.342;2023-04-10T05:15:06;8.30;73.50
16118;DHT22;8163;50.118;5.342;2023-04-10T05:17:33;8.40;73.70
16118;DHT22;8163;50.118;5.342;2023-04-10T05:20:00;8.40;73.80
16118;DHT22;8163;50.118;5.342;2023-04-10T05:22:27;8.50;73.90
16118;DHT22;8163;50.118;5.342;2023-04-10T05:24:55;8.70;73.90
16118;DHT22;8163;50.118;5.342;2023-04-10T05:27:24;8.90;73.90
16118;DHT22;8163;50.118;5.342;2023-04-10T05:29:51;9.20;73.90
16118;DHT22;8163;50.118;5.342;2023-04-10T05:32:18;9.60;73.80
16118;DHT22;8163;50.118;5.342;2023-04-10T05:34:45;9.70;73.50
16118;DHT22;8163;50.118;5.342;2023-04-10T05:37:12;9.70;73.30
16118;DHT22;8163;50.118;5.342;2023-04-10T05:39:39;9.90;73.50
16118;DHT22;8163;50.118;5.342;2023-04-10T05:42:06;10.30;72.30
16118;DHT22;8163;50.118;5.342;2023-04-10T05:44:34;10.50;72.10
16118;DHT22;8163;50.118;5.342;2023-04-10T05:47:01;11.10;72.10
16118;DHT22;8163;50.118;5.342;2023-04-10T05:49:28;11.70;71.90
16118;DHT22;8163;50.118;5.342;2023-04-10T05:51:56;11.40;71.30
16118;DHT22;8163;50.118;5.342;2023-04-10T05:54:24;11.10;71.00
16118;DHT22;8163;50.118;5.342;2023-04-10T05:56:51;10.90;71.10
16118;DHT22;8163;50.118;5.342;2023-04-10T05:59:18;10.80;71.20
16118;DHT22;8163;50.118;5.342;2023-04-10T06:01:46;11.00;71.20
16118;DHT22;8163;50.118;5.342;2023-04-10T06:04:13;11.50;71.30
16118;DHT22;8163;50.118;5.342;2023-04-10T06:06:41;11.90;70.80
16118;DHT22;8163;50.118;5.342;2023-04-10T06:09:08;11.80;70.30
16118;DHT22;8163;50.118;5.342;2023-04-10T06:11:35;11.80;70.30
16118;DHT22;8163;50.118;5.342;2023-04-10T06:14:02;11.70;70.10
16118;DHT22;8163;50.118;5.342;2023-04-10T06:16:30;11.60;69.80
16118;DHT22;8163;50.118;5.342;2023-04-10T06:18:58;11.80;69.90
16118;DHT22;8163;50.118;5.342;2023-04-10T06:21:25;12.10;69.60
16118;DHT22;8163;50.118;5.342;2023-04-10T06:23:52;12.40;69.20
16118;DHT22;8163;50.118;5.342;2023-04-10T06:26:19;12.70;69.30
16118;DHT22;8163;50.118;5.342;2023-04-10T06:28:46;12.80;69.20
16118;DHT22;8163;50.118;5.342;2023-04-10T06:31:13;12.90;68.50
16118;DHT22;8163;50.118;5.342;2023-04-10T06:33:40;13.10;68.60
16118;DHT22;8163;50.118;5.342;2023-04-10T06:36:09;13.30;68.50
16118;DHT22;8163;50.118;5.342;2023-04-10T06:38:36;13.50;68.50
16118;DHT22;8163;50.118;5.342;2023-04-10T06:41:04;13.80;68.50
16118;DHT22;8163;50.118;5.342;2023-04-10T06:43:33;14.20;68.30
16118;DHT22;8163;50.118;5.342;2023-04-10T06:46:00;14.40;67.20
16118;DHT22;8163;50.118;5.342;2023-04-10T06:48:28;14.70;66.70
16118;DHT22;8163;50.118;5.342;2023-04-10T06:50:55;14.80;66.40
16118;DHT22;8163;50.118;5.342;2023-04-10T06:53:26;15.20;66.10
16118;DHT22;8163;50.118;5.342;2023-04-10T06:55:53;15.90;65.90
16118;DHT22;8163;50.118;5.342;2023-04-10T06:58:22;16.10;65.40
16118;DHT22;8163;50.118;5.342;2023-04-10T07:00:50;16.10;64.80
16118;DHT22;8163;50.118;5.342;2023-04-10T07:03:16;16.10;63.90
16118;DHT22;8163;50.118;5.342;2023-04-10T07:05:44;16.20;63.60
16118;DHT22;8163;50.118;5.342;2023-04-10T07:08:11;16.20;63.50
16118;DHT22;8163;50.118;5.342;2023-04-10T07:10:40;15.90;63.00
16118;DHT22;8163;50.118;5.342;2023-04-10T07:13:07;15.90;62.60
16118;DHT22;8163;50.118;5.342;2023-04-10T07:15:34;15.60;62.10
16118;DHT22;8163;50.118;5.342;2023-04-10T07:18:01;15.30;62.30
16118;DHT22;8163;50.118;5.342;2023-04-10T07:20:28;15.00;62.40
16118;DHT22;8163;50.118;5.342;2023-04-10T07:22:55;14.60;62.30
16118;DHT22;8163;50.118;5.342;2023-04-10T07:25:22;14.10;61.70
16118;DHT22;8163;50.118;5.342;2023-04-10T07:27:50;13.90;62.10
16118;DHT22;8163;50.118;5.342;2023-04-10T07:30:18;13.70;62.30
16118;DHT22;8163;50.118;5.342;2023-04-10T07:32:45;13.50;62.40
16118;DHT22;8163;50.118;5.342;2023-04-10T07:35:13;13.40;62.50
16118;DHT22;8163;50.118;5.342;2023-04-10T07:37:40;13.40;62.50
16118;DHT22;8163;50.118;5.342;2023-04-10T07:40:09;13.30;62.40
16118;DHT22;8163;50.118;5.342;2023-04-10T07:42:37;13.30;62.80
16118;DHT22;8163;50.118;5.342;2023-04-10T07:45:06;13.20;62.60
16118;DHT22;8163;50.118;5.342;2023-04-10T07:47:33;13.20;62.90
16118;DHT22;8163;50.118;5.342;2023-04-10T07:50:00;13.20;63.20
16118;DHT22;8163;50.118;5.342;2023-04-10T07:52:27;13.10;63.10
16118;DHT22;8163;50.118;5.342;2023-04-10T07:54:55;13.00;63.20
16118;DHT22;8163;50.118;5.342;2023-04-10T07:57:22;13.00;63.50
16118;DHT22;8163;50.118;5.342;2023-04-10T07:59:50;13.00;63.40
16118;DHT22;8163;50.118;5.342;2023-04-10T08:02:18;13.10;63.50
16118;DHT22;8163;50.118;5.342;2023-04-10T08:04:45;13.30;63.90
16118;DHT22;8163;50.118;5.342;2023-04-10T08:07:13;13.30;63.90
16118;DHT22;8163;50.118;5.342;2023-04-10T08:09:40;13.40;63.80
16118;DHT22;8163;50.118;5.342;2023-04-10T08:12:08;13.40;63.70
16118;DHT22;8163;50.118;5.342;2023-04-10T08:14:35;13.40;63.60
16118;DHT22;8163;50.118;5.342;2023-04-10T08:17:02;13.50;63.90
16118;DHT22;8163;50.118;5.342;2023-04-10T08:19:31;13.70;64.80
16118;DHT22;8163;50.118;5.342;2023-04-10T08:21:58;13.80;63.60
16118;DHT22;8163;50.118;5.342;2023-04-10T08:24:25;13.80;63.30
16118;DHT22;8163;50.118;5.342;2023-04-10T08:26:52;14.30;64.20
16118;DHT22;8163;50.118;5.342;2023-04-10T08:29:19;15.10;64.60
16118;DHT22;8163;50.118;5.342;2023-04-10T08:31:45;15.60;64.40
16118;DHT22;8163;50.118;5.342;2023-04-10T08:34:12;15.60;63.40
16118;DHT22;8163;50.118;5.342;2023-04-10T08:36:41;15.40;62.80
16118;DHT22;8163;50.118;5.342;2023-04-10T08:39:08;15.20;62.40
16118;DHT22;8163;50.118;5.342;2023-04-10T08:41:35;15.10;62.50
16118;DHT22;8163;50.118;5.342;2023-04-10T08:44:02;14.90;62.00
16118;DHT22;8163;50.118;5.342;2023-04-10T08:46:32;14.80;62.10
16118;DHT22;8163;50.118;5.342;2023-04-10T08:49:03;14.60;62.00
16118;DHT22;8163;50.118;5.342;2023-04-10T08:51:34;14.60;62.10
16118;DHT22;8163;50.118;5.342;2023-04-10T08:54:05;14.50;62.30
16118;DHT22;8163;50.118;5.342;2023-04-10T08:56:34;14.50;62.40
16118;DHT22;8163;50.118;5.342;2023-04-10T08:59:02;14.50;62.30
16118;DHT22;8163;50.118;5.342;2023-04-10T09:01:29;14.40;62.10
16118;DHT22;8163;50.118;5.342;2023-04-10T09:03:57;14.40;61.90
16118;DHT22;8163;50.118;5.342;2023-04-10T09:06:27;14.40;62.20
16118;DHT22;8163;50.118;5.342;2023-04-10T09:08:54;14.50;62.00
16118;DHT22;8163;50.118;5.342;2023-04-10T09:11:22;14.60;61.90
16118;DHT22;8163;50.118;5.342;2023-04-10T09:13:49;14.70;62.00
16118;DHT22;8163;50.118;5.342;2023-04-10T09:16:16;14.80;61.90
16118;DHT22;8163;50.118;5.342;2023-04-10T09:18:46;15.00;62.30
16118;DHT22;8163;50.118;5.342;2023-04-10T09:21:15;15.20;61.90
16118;DHT22;8163;50.118;5.342;2023-04-10T09:23:43;15.20;62.50
16118;DHT22;8163;50.118;5.342;2023-04-10T09:26:26;15.30;61.70
16118;DHT22;8163;50.118;5.342;2023-04-10T09:28:57;15.40;61.50
16118;DHT22;8163;50.118;5.342;2023-04-10T09:31:30;15.60;61.50
16118;DHT22;8163;50.118;5.342;2023-04-10T09:34:08;15.70;61.20
16118;DHT22;8163;50.118;5.342;2023-04-10T09:36:35;15.80;61.30
16118;DHT22;8163;50.118;5.342;2023-04-10T09:39:03;15.90;61.10
16118;DHT22;8163;50.118;5.342;2023-04-10T09:41:32;16.10;60.80
16118;DHT22;8163;50.118;5.342;2023-04-10T09:44:05;16.20;60.60
16118;DHT22;8163;50.118;5.342;2023-04-10T09:46:33;16.30;60.30
16118;DHT22;8163;50.118;5.342;2023-04-10T09:49:00;16.30;60.50
16118;DHT22;8163;50.118;5.342;2023-04-10T09:51:31;16.40;60.50
16118;DHT22;8163;50.118;5.342;2023-04-10T09:53:58;16.40;60.00
16118;DHT22;8163;50.118;5.342;2023-04-10T09:56:26;16.20;59.80
16118;DHT22;8163;50.118;5.342;2023-04-10T09:58:57;16.00;59.70
16118;DHT22;8163;50.118;5.342;2023-04-10T10:01:25;15.80;59.60
16118;DHT22;8163;50.118;5.342;2023-04-10T10:03:54;15.70;59.50
16118;DHT22;8163;50.118;5.342;2023-04-10T10:06:21;15.60;59.60
16118;DHT22;8163;50.118;5.342;2023-04-10T10:08:50;15.50;59.60
16118;DHT22;8163;50.118;5.342;2023-04-10T10:11:20;15.40;59.70
16118;DHT22;8163;50.118;5.342;2023-04-10T10:13:50;15.30;59.80
16118;DHT22;8163;50.118;5.342;2023-04-10T10:16:25;15.20;59.90
16118;DHT22;8163;50.118;5.342;2023-04-10T10:19:00;15.30;60.20
16118;DHT22;8163;50.118;5.342;2023-04-10T10:21:32;15.50;60.70
16118;DHT22;8163;50.118;5.342;2023-04-10T10:24:02;15.70;60.70
16118;DHT22;8163;50.118;5.342;2023-04-10T10:26:31;15.80;60.50
16118;DHT22;8163;50.118;5.342;2023-04-10T10:29:02;15.90;60.10
16118;DHT22;8163;50.118;5.342;2023-04-10T10:31:32;15.80;59.70
16118;DHT22;8163;50.118;5.342;2023-04-10T10:34:02;15.80;60.00
16118;DHT22;8163;50.118;5.342;2023-04-10T10:36:32;15.80;59.60
16118;DHT22;8163;50.118;5.342;2023-04-10T10:39:12;15.80;59.50
16118;DHT22;8163;50.118;5.342;2023-04-10T10:41:43;15.80;59.60
16118;DHT22;8163;50.118;5.342;2023-04-10T10:44:19;15.80;59.40
16118;DHT22;8163;50.118;5.342;2023-04-10T10:46:50;15.70;59.10
16118;DHT22;8163;50.118;5.342;2023-04-10T10:49:18;15.70;59.30
16118;DHT22;8163;50.118;5.342;2023-04-10T10:51:46;15.60;59.40
16118;DHT22;8163;50.118;5.342;2023-04-10T10:54:30;15.70;59.50
16118;DHT22;8163;50.118;5.342;2023-04-10T10:56:57;15.80;59.60
16118;DHT22;8163;50.118;5.342;2023-04-10T10:59:55;15.90;59.60
16118;DHT22;8163;50.118;5.342;2023-04-10T11:02:24;16.00;59.70
16118;DHT22;8163;50.118;5.342;2023-04-10T11:04:52;16.10;59.50
16118;DHT22;8163;50.118;5.342;2023-04-10T11:07:19;16.10;59.30
16118;DHT22;8163;50.118;5.342;2023-04-10T11:09:50;16.00;58.90
16118;DHT22;8163;50.118;5.342;2023-04-10T11:12:20;16.10;59.00
16118;DHT22;8163;50.118;5.342;2023-04-10T11:14:56;16.10;59.00
16118;DHT22;8163;50.118;5.342;2023-04-10T11:17:47;16.10;58.70
16118;DHT22;8163;50.118;5.342;2023-04-10T11:20:15;16.10;58.80
16118;DHT22;8163;50.118;5.342;2023-04-10T11:23:08;16.10;58.80
16118;DHT22;8163;50.118;5.342;2023-04-10T11:25:48;16.00;58.60
16118;DHT22;8163;50.118;5.342;2023-04-10T11:28:35;15.90;58.30
16118;DHT22;8163;50.118;5.342;2023-04-10T11:31:17;15.90;58.60
16118;DHT22;8163;50.118;5.342;2023-04-10T11:33:47;16.10;58.90
16118;DHT22;8163;50.118;5.342;2023-04-10T11:36:15;16.20;58.90
16118;DHT22;8163;50.118;5.342;2023-04-10T11:38:53;16.20;58.70
16118;DHT22;8163;50.118;5.342;2023-04-10T11:41:25;16.20;58.70
16118;DHT22;8163;50.118;5.342;2023-04-10T11:43:53;16.40;59.00
16118;DHT22;8163;50.118;5.342;2023-04-10T11:46:20;16.40;59.00
16118;DHT22;8163;50.118;5.342;2023-04-10T11:48:51;16.50;59.00
16118;DHT22;8163;50.118;5.342;2023-04-10T11:51:19;16.60;58.90
16118;DHT22;8163;50.118;5.342;2023-04-10T11:53:46;16.50;58.70
16118;DHT22;8163;50.118;5.342;2023-04-10T11:56:18;16.60;59.20
16118;DHT22;8163;50.118;5.342;2023-04-10T11:58:48;16.60;58.60
16118;DHT22;8163;50.118;5.342;2023-04-10T12:01:20;16.60;58.80
16118;DHT22;8163;50.118;5.342;2023-04-10T12:03:48;16.70;58.80
16118;DHT22;8163;50.118;5.342;2023-04-10T12:06:16;16.70;58.50
16118;DHT22;8163;50.118;5.342;2023-04-10T12:08:46;16.80;58.50
16118;DHT22;8163;50.118;5.342;2023-04-10T12:11:17;16.90;58.90
16118;DHT22;8163;50.118;5.342;2023-04-10T12:13:45;17.00;58.90
16118;DHT22;8163;50.118;5.342;2023-04-10T12:16:12;17.00;58.60
16118;DHT22;8163;50.118;5.342;2023-04-10T12:18:40;17.20;58.50
16118;DHT22;8163;50.118;5.342;2023-04-10T12:21:09;17.40;58.90
16118;DHT22;8163;50.118;5.342;2023-04-10T12:23:37;17.70;59.10
16118;DHT22;8163;50.118;5.342;2023-04-10T12:26:10;17.90;58.80
16118;DHT22;8163;50.118;5.342;2023-04-10T12:28:39;18.20;59.10
16118;DHT22;8163;50.118;5.342;2023-04-10T12:31:07;18.30;58.90
16118;DHT22;8163;50.118;5.342;2023-04-10T12:33:35;18.30;58.60
16118;DHT22;8163;50.118;5.342;2023-04-10T12:36:02;18.60;58.70
16118;DHT22;8163;50.118;5.342;2023-04-10T12:38:41;19.00;58.70
16118;DHT22;8163;50.118;5.342;2023-04-10T12:41:19;19.10;58.00
16118;DHT22;8163;50.118;5.342;2023-04-10T12:43:46;18.80;57.40
16118;DHT22;8163;50.118;5.342;2023-04-10T12:46:23;18.50;56.90
16118;DHT22;8163;50.118;5.342;2023-04-10T12:48:50;18.10;57.00
16118;DHT22;8163;50.118;5.342;2023-04-10T12:51:17;17.80;56.90
16118;DHT22;8163;50.118;5.342;2023-04-10T12:53:46;17.60;56.80
16118;DHT22;8163;50.118;5.342;2023-04-10T12:56:13;17.30;57.80
16118;DHT22;8163;50.118;5.342;2023-04-10T12:58:42;17.30;57.60
16118;DHT22;8163;50.118;5.342;2023-04-10T13:01:09;17.10;57.50
16118;DHT22;8163;50.118;5.342;2023-04-10T13:03:37;17.10;57.80
16118;DHT22;8163;50.118;5.342;2023-04-10T13:06:05;16.90;57.80
16118;DHT22;8163;50.118;5.342;2023-04-10T13:08:32;16.80;58.20
16118;DHT22;8163;50.118;5.342;2023-04-10T13:11:01;16.60;58.30
16118;DHT22;8163;50.118;5.342;2023-04-10T13:13:29;16.50;58.60
16118;DHT22;8163;50.118;5.342;2023-04-10T13:15:57;16.30;58.70
16118;DHT22;8163;50.118;5.342;2023-04-10T13:18:25;16.30;59.00
16118;DHT22;8163;50.118;5.342;2023-04-10T13:20:51;16.10;59.00
16118;DHT22;8163;50.118;5.342;2023-04-10T13:23:18;16.00;59.30
16118;DHT22;8163;50.118;5.342;2023-04-10T13:25:45;15.80;59.50
16118;DHT22;8163;50.118;5.342;2023-04-10T13:28:14;15.70;59.60
16118;DHT22;8163;50.118;5.342;2023-04-10T13:30:43;15.50;59.90
16118;DHT22;8163;50.118;5.342;2023-04-10T13:33:10;15.40;60.80
16118;DHT22;8163;50.118;5.342;2023-04-10T13:35:38;15.30;60.40
16118;DHT22;8163;50.118;5.342;2023-04-10T13:38:05;15.30;60.60
16118;DHT22;8163;50.118;5.342;2023-04-10T13:40:33;15.20;60.60
16118;DHT22;8163;50.118;5.342;2023-04-10T13:43:00;15.20;60.60
16118;DHT22;8163;50.118;5.342;2023-04-10T13:45:29;15.20;61.60
16118;DHT22;8163;50.118;5.342;2023-04-10T13:47:56;15.20;60.80
16118;DHT22;8163;50.118;5.342;2023-04-10T13:50:23;15.20;61.50
16118;DHT22;8163;50.118;5.342;2023-04-10T13:52:50;15.30;60.70
16118;DHT22;8163;50.118;5.342;2023-04-10T13:55:17;15.30;60.70
16118;DHT22;8163;50.118;5.342;2023-04-10T13:57:44;15.30;60.70
16118;DHT22;8163;50.118;5.342;2023-04-10T14:35:42;14.90;59.70
16118;DHT22;8163;50.118;5.342;2023-04-10T14:38:10;14.80;60.40
16118;DHT22;8163;50.118;5.342;2023-04-10T14:40:37;14.80;60.80
16118;DHT22;8163;50.118;5.342;2023-04-10T14:43:05;14.80;61.20
16118;DHT22;8163;50.118;5.342;2023-04-10T14:45:33;14.80;61.60
16118;DHT22;8163;50.118;5.342;2023-04-10T14:48:02;14.80;61.80
16118;DHT22;8163;50.118;5.342;2023-04-10T14:50:31;14.80;62.10
16118;DHT22;8163;50.118;5.342;2023-04-10T14:52:59;14.70;62.10
16118;DHT22;8163;50.118;5.342;2023-04-10T14:55:27;14.60;62.10
16118;DHT22;8163;50.118;5.342;2023-04-10T14:57:56;14.60;62.30
16118;DHT22;8163;50.118;5.342;2023-04-10T15:00:23;14.50;62.30
16118;DHT22;8163;50.118;5.342;2023-04-10T15:02:50;14.50;63.30
16118;DHT22;8163;50.118;5.342;2023-04-10T15:05:19;14.50;62.80
16118;DHT22;8163;50.118;5.342;2023-04-10T15:07:46;14.50;63.00
16118;DHT22;8163;50.118;5.342;2023-04-10T15:10:14;14.40;63.20
16118;DHT22;8163;50.118;5.342;2023-04-10T15:12:41;14.40;63.50
16118;DHT22;8163;50.118;5.342;2023-04-10T15:15:09;14.40;63.50
16118;DHT22;8163;50.118;5.342;2023-04-10T15:17:36;14.40;63.50
16118;DHT22;8163;50.118;5.342;2023-04-10T15:20:04;14.40;63.70
16118;DHT22;8163;50.118;5.342;2023-04-10T15:22:31;14.40;63.90
16118;DHT22;8163;50.118;5.342;2023-04-10T15:24:58;14.40;64.10
16118;DHT22;8163;50.118;5.342;2023-04-10T15:27:27;14.50;64.40
16118;DHT22;8163;50.118;5.342;2023-04-10T15:29:54;14.60;64.60
16118;DHT22;8163;50.118;5.342;2023-04-10T15:32:21;14.70;64.80
16118;DHT22;8163;50.118;5.342;2023-04-10T15:34:48;14.70;64.70
16118;DHT22;8163;50.118;5.342;2023-04-10T15:37:15;14.70;64.60
16118;DHT22;8163;50.118;5.342;2023-04-10T15:39:42;14.80;64.80
16118;DHT22;8163;50.118;5.342;2023-04-10T15:42:09;14.70;64.80
16118;DHT22;8163;50.118;5.342;2023-04-10T15:44:38;14.70;64.90
16118;DHT22;8163;50.118;5.342;2023-04-10T15:47:05;14.60;64.60
16118;DHT22;8163;50.118;5.342;2023-04-10T15:49:32;14.60;64.80
16118;DHT22;8163;50.118;5.342;2023-04-10T15:51:59;14.50;65.00
16118;DHT22;8163;50.118;5.342;2023-04-10T15:54:26;14.40;65.10
16118;DHT22;8163;50.118;5.342;2023-04-10T15:56:53;14.30;65.20
16118;DHT22;8163;50.118;5.342;2023-04-10T15:59:20;14.20;65.10
16118;DHT22;8163;50.118;5.342;2023-04-10T16:01:51;14.20;65.20
16118;DHT22;8163;50.118;5.342;2023-04-10T16:04:18;14.30;65.40
16118;DHT22;8163;50.118;5.342;2023-04-10T16:06:46;14.20;65.20
16118;DHT22;8163;50.118;5.342;2023-04-10T16:09:12;14.20;65.50
16118;DHT22;8163;50.118;5.342;2023-04-10T16:11:40;14.20;65.50
16118;DHT22;8163;50.118;5.342;2023-04-10T16:14:07;14.20;65.60
16118;DHT22;8163;50.118;5.342;2023-04-10T16:16:34;14.30;66.40
16118;DHT22;8163;50.118;5.342;2023-04-10T16:19:02;14.30;65.80
16118;DHT22;8163;50.118;5.342;2023-04-10T16:21:29;14.20;65.80
16118;DHT22;8163;50.118;5.342;2023-04-10T16:23:57;14.20;65.80
16118;DHT22;8163;50.118;5.342;2023-04-10T16:26:25;14.10;65.90
16118;DHT22;8163;50.118;5.342;2023-04-10T16:28:53;14.00;66.20
16118;DHT22;8163;50.118;5.342;2023-04-10T16:31:20;13.90;66.30
16118;DHT22;8163;50.118;5.342;2023-04-10T16:33:47;13.90;66.70
16118;DHT22;8163;50.118;5.342;2023-04-10T16:36:17;13.80;67.30
16118;DHT22;8163;50.118;5.342;2023-04-10T16:38:44;13.70;68.00